sensor_id;sensor_type;location;lat;lon;timestamp;P1;durP1;ratioP1;P2;durP2;ratioP2
17207;SDS011;8720;48.488;9.202;2023-04-07T00:00:04;6.90;;;5.60;;
17207;SDS011;8720;48.488;9.202;2023-04-07T00:02:39;7.60;;;5.60;;
17207;SDS011;8720;48.488;9.202;2023-04-07T00:05:06;8.47;;;6.10;;
17207;SDS011;8720;48.488;9.202;2023-04-07T00:07:34;6.97;;;6.23;;
17207;SDS011;8720;48.488;9.202;2023-04-07T00:10:01;6.77;;;6.00;;
17207;SDS011;8720;48.488;9.202;2023-04-07T00:12:28;8.40;;;6.80;;
17207;SDS011;8720;48.488;9.202;2023-04-07T00:14:56;8.53;;;6.17;;
17207;SDS011;8720;48.488;9.202;2023-04-07T00:17:25;8.70;;;6.60;;
17207;SDS011;8720;48.488;9.202;2023-04-07T00:19:52;7.43;;;6.60;;
17207;SDS011;8720;48.488;9.202;2023-04-07T00:22:19;9.83;;;6.73;;
17207;SDS011;8720;48.488;9.202;2023-04-07T00:24:46;9.17;;;7.17;;
17207;SDS011;8720;48.488;9.202;2023-04-07T00:27:14;9.90;;;6.70;;
17207;SDS011;8720;48.488;9.202;2023-04-07T00:29:44;8.30;;;6.87;;
17207;SDS011;8720;48.488;9.202;2023-04-07T00:32:11;9.40;;;7.10;;
17207;SDS011;8720;48.488;9.202;2023-04-07T00:34:40;7.93;;;6.87;;
17207;SDS011;8720;48.488;9.202;2023-04-07T00:37:07;9.47;;;6.70;;
17207;SDS011;8720;48.488;9.202;2023-04-07T00:39:35;9.83;;;7.87;;
17207;SDS011;8720;48.488;9.202;2023-04-07T00:42:02;8.30;;;6.70;;
17207;SDS011;8720;48.488;9.202;2023-04-07T00:44:30;9.73;;;7.60;;
17207;SDS011;8720;48.488;9.202;2023-04-07T00:46:58;9.40;;;6.67;;
17207;SDS011;8720;48.488;9.202;2023-04-07T00:49:26;9.53;;;6.97;;
17207;SDS011;8720;48.488;9.202;2023-04-07T00:51:55;9.87;;;7.10;;
17207;SDS011;8720;48.488;9.202;2023-04-07T00:54:23;9.50;;;7.20;;
17207;SDS011;8720;48.488;9.202;2023-04-07T00:56:51;8.00;;;6.90;;
17207;SDS011;8720;48.488;9.202;2023-04-07T00:59:20;9.23;;;7.60;;
17207;SDS011;8720;48.488;9.202;2023-04-07T01:01:49;8.90;;;7.27;;
17207;SDS011;8720;48.488;9.202;2023-04-07T01:04:29;7.67;;;6.73;;
17207;SDS011;8720;48.488;9.202;2023-04-07T01:07:06;8.53;;;7.00;;
17207;SDS011;8720;48.488;9.202;2023-04-07T01:09:47;8.10;;;7.07;;
17207;SDS011;8720;48.488;9.202;2023-04-07T01:12:33;9.73;;;7.77;;
17207;SDS011;8720;48.488;9.202;2023-04-07T01:15:10;9.63;;;7.63;;
17207;SDS011;8720;48.488;9.202;2023-04-07T01:17:42;9.33;;;7.57;;
17207;SDS011;8720;48.488;9.202;2023-04-07T01:20:15;8.93;;;7.30;;
17207;SDS011;8720;48.488;9.202;2023-04-07T01:22:53;8.37;;;7.47;;
17207;SDS011;8720;48.488;9.202;2023-04-07T01:32:01;8.90;;;7.53;;
17207;SDS011;8720;48.488;9.202;2023-04-07T01:34:32;8.87;;;7.17;;
17207;SDS011;8720;48.488;9.202;2023-04-07T01:37:02;9.07;;;7.70;;
17207;SDS011;8720;48.488;9.202;2023-04-07T01:39:31;9.10;;;8.03;;
17207;SDS011;8720;48.488;9.202;2023-04-07T01:42:01;8.70;;;7.63;;
17207;SDS011;8720;48.488;9.202;2023-04-07T01:44:32;7.60;;;6.80;;
17207;SDS011;8720;48.488;9.202;2023-04-07T01:47:02;8.60;;;7.70;;
17207;SDS011;8720;48.488;9.202;2023-04-07T01:49:31;8.73;;;7.83;;
17207;SDS011;8720;48.488;9.202;2023-04-07T01:52:00;8.40;;;7.60;;
17207;SDS011;8720;48.488;9.202;2023-04-07T01:54:30;8.83;;;7.93;;
17207;SDS011;8720;48.488;9.202;2023-04-07T01:56:58;8.87;;;7.47;;
17207;SDS011;8720;48.488;9.202;2023-04-07T01:59:26;8.70;;;7.30;;
17207;SDS011;8720;48.488;9.202;2023-04-07T02:01:55;8.93;;;8.03;;
17207;SDS011;8720;48.488;9.202;2023-04-07T02:04:27;8.33;;;7.33;;
17207;SDS011;8720;48.488;9.202;2023-04-07T02:07:05;8.37;;;7.40;;
17207;SDS011;8720;48.488;9.202;2023-04-07T02:09:45;8.53;;;6.93;;
17207;SDS011;8720;48.488;9.202;2023-04-07T02:12:15;8.43;;;7.40;;
17207;SDS011;8720;48.488;9.202;2023-04-07T02:14:59;8.40;;;7.33;;
17207;SDS011;8720;48.488;9.202;2023-04-07T02:17:27;10.23;;;7.77;;
17207;SDS011;8720;48.488;9.202;2023-04-07T02:20:01;8.70;;;7.60;;
17207;SDS011;8720;48.488;9.202;2023-04-07T02:22:32;10.03;;;8.37;;
17207;SDS011;8720;48.488;9.202;2023-04-07T02:25:00;8.63;;;7.00;;
17207;SDS011;8720;48.488;9.202;2023-04-07T02:27:27;8.80;;;7.20;;
17207;SDS011;8720;48.488;9.202;2023-04-07T02:29:54;10.73;;;8.40;;
17207;SDS011;8720;48.488;9.202;2023-04-07T02:32:22;10.37;;;7.77;;
17207;SDS011;8720;48.488;9.202;2023-04-07T02:34:49;9.03;;;7.60;;
17207;SDS011;8720;48.488;9.202;2023-04-07T02:37:18;7.73;;;6.90;;
17207;SDS011;8720;48.488;9.202;2023-04-07T02:39:45;7.43;;;6.43;;
17207;SDS011;8720;48.488;9.202;2023-04-07T02:42:12;9.20;;;7.80;;
17207;SDS011;8720;48.488;9.202;2023-04-07T02:44:40;10.97;;;8.17;;
17207;SDS011;8720;48.488;9.202;2023-04-07T02:47:08;14.40;;;8.13;;
17207;SDS011;8720;48.488;9.202;2023-04-07T02:49:35;11.83;;;7.30;;
17207;SDS011;8720;48.488;9.202;2023-04-07T02:52:04;9.93;;;8.00;;
17207;SDS011;8720;48.488;9.202;2023-04-07T02:54:33;9.03;;;7.13;;
17207;SDS011;8720;48.488;9.202;2023-04-07T02:57:01;10.07;;;8.30;;
17207;SDS011;8720;48.488;9.202;2023-04-07T02:59:28;7.97;;;6.93;;
17207;SDS011;8720;48.488;9.202;2023-04-07T03:01:55;9.13;;;7.43;;
17207;SDS011;8720;48.488;9.202;2023-04-07T03:04:23;9.40;;;7.80;;
17207;SDS011;8720;48.488;9.202;2023-04-07T03:06:51;7.23;;;6.37;;
17207;SDS011;8720;48.488;9.202;2023-04-07T03:09:20;8.63;;;6.93;;
17207;SDS011;8720;48.488;9.202;2023-04-07T03:11:49;8.03;;;7.10;;
17207;SDS011;8720;48.488;9.202;2023-04-07T03:14:18;7.73;;;6.63;;
17207;SDS011;8720;48.488;9.202;2023-04-07T03:16:47;8.37;;;6.80;;
17207;SDS011;8720;48.488;9.202;2023-04-07T03:19:16;7.73;;;6.70;;
17207;SDS011;8720;48.488;9.202;2023-04-07T03:21:48;9.67;;;7.50;;
17207;SDS011;8720;48.488;9.202;2023-04-07T03:24:15;10.50;;;6.97;;
17207;SDS011;8720;48.488;9.202;2023-04-07T03:26:44;7.93;;;6.80;;
17207;SDS011;8720;48.488;9.202;2023-04-07T03:29:36;8.27;;;7.00;;
17207;SDS011;8720;48.488;9.202;2023-04-07T03:32:06;9.27;;;7.40;;
17207;SDS011;8720;48.488;9.202;2023-04-07T03:34:34;9.20;;;6.90;;
17207;SDS011;8720;48.488;9.202;2023-04-07T03:37:01;9.87;;;7.10;;
17207;SDS011;8720;48.488;9.202;2023-04-07T03:39:31;8.47;;;6.60;;
17207;SDS011;8720;48.488;9.202;2023-04-07T03:42:03;8.10;;;7.30;;
17207;SDS011;8720;48.488;9.202;2023-04-07T03:44:32;9.10;;;6.87;;
17207;SDS011;8720;48.488;9.202;2023-04-07T03:47:00;7.33;;;6.63;;
17207;SDS011;8720;48.488;9.202;2023-04-07T03:49:29;7.47;;;6.67;;
17207;SDS011;8720;48.488;9.202;2023-04-07T03:52:00;7.27;;;6.57;;
17207;SDS011;8720;48.488;9.202;2023-04-07T03:54:28;8.07;;;7.27;;
17207;SDS011;8720;48.488;9.202;2023-04-07T03:56:55;8.33;;;6.80;;
17207;SDS011;8720;48.488;9.202;2023-04-07T03:59:23;9.10;;;6.90;;
17207;SDS011;8720;48.488;9.202;2023-04-07T04:01:58;7.43;;;6.30;;
17207;SDS011;8720;48.488;9.202;2023-04-07T04:04:28;8.83;;;7.23;;
17207;SDS011;8720;48.488;9.202;2023-04-07T04:06:56;8.43;;;6.50;;
17207;SDS011;8720;48.488;9.202;2023-04-07T04:09:45;7.00;;;6.30;;
17207;SDS011;8720;48.488;9.202;2023-04-07T04:12:12;7.90;;;6.90;;
17207;SDS011;8720;48.488;9.202;2023-04-07T04:14:52;7.67;;;6.70;;
17207;SDS011;8720;48.488;9.202;2023-04-07T04:17:20;7.80;;;6.33;;
17207;SDS011;8720;48.488;9.202;2023-04-07T04:19:49;7.93;;;7.00;;
17207;SDS011;8720;48.488;9.202;2023-04-07T04:22:40;9.47;;;7.30;;
17207;SDS011;8720;48.488;9.202;2023-04-07T04:25:07;8.27;;;7.00;;
17207;SDS011;8720;48.488;9.202;2023-04-07T04:27:35;9.10;;;7.70;;
17207;SDS011;8720;48.488;9.202;2023-04-07T04:30:15;8.30;;;6.70;;
17207;SDS011;8720;48.488;9.202;2023-04-07T04:32:50;7.83;;;6.30;;
17207;SDS011;8720;48.488;9.202;2023-04-07T04:35:25;9.03;;;6.80;;
17207;SDS011;8720;48.488;9.202;2023-04-07T04:38:18;8.37;;;7.27;;
17207;SDS011;8720;48.488;9.202;2023-04-07T04:40:52;7.93;;;7.07;;
17207;SDS011;8720;48.488;9.202;2023-04-07T04:43:25;8.53;;;6.83;;
17207;SDS011;8720;48.488;9.202;2023-04-07T04:45:53;11.20;;;6.83;;
17207;SDS011;8720;48.488;9.202;2023-04-07T04:48:25;8.47;;;6.97;;
17207;SDS011;8720;48.488;9.202;2023-04-07T04:50:53;7.77;;;6.83;;
17207;SDS011;8720;48.488;9.202;2023-04-07T04:53:21;8.93;;;7.27;;
17207;SDS011;8720;48.488;9.202;2023-04-07T04:55:55;9.90;;;6.07;;
17207;SDS011;8720;48.488;9.202;2023-04-07T04:58:33;7.83;;;6.70;;
17207;SDS011;8720;48.488;9.202;2023-04-07T05:01:00;8.37;;;7.17;;
17207;SDS011;8720;48.488;9.202;2023-04-07T05:03:50;6.43;;;5.83;;
17207;SDS011;8720;48.488;9.202;2023-04-07T05:06:26;9.43;;;7.43;;
17207;SDS011;8720;48.488;9.202;2023-04-07T05:08:56;9.30;;;7.87;;
17207;SDS011;8720;48.488;9.202;2023-04-07T05:11:31;9.07;;;8.00;;
17207;SDS011;8720;48.488;9.202;2023-04-07T05:13:58;9.77;;;8.03;;
17207;SDS011;8720;48.488;9.202;2023-04-07T05:16:26;8.83;;;7.37;;
17207;SDS011;8720;48.488;9.202;2023-04-07T05:18:54;7.80;;;6.87;;
17207;SDS011;8720;48.488;9.202;2023-04-07T05:21:23;7.77;;;6.97;;
17207;SDS011;8720;48.488;9.202;2023-04-07T05:23:55;9.10;;;7.70;;
17207;SDS011;8720;48.488;9.202;2023-04-07T05:26:22;9.43;;;7.43;;
17207;SDS011;8720;48.488;9.202;2023-04-07T05:28:50;8.63;;;7.63;;
17207;SDS011;8720;48.488;9.202;2023-04-07T05:31:21;9.13;;;7.53;;
17207;SDS011;8720;48.488;9.202;2023-04-07T05:33:52;8.70;;;7.80;;
17207;SDS011;8720;48.488;9.202;2023-04-07T05:36:22;9.63;;;8.30;;
17207;SDS011;8720;48.488;9.202;2023-04-07T05:38:55;10.80;;;7.37;;
17207;SDS011;8720;48.488;9.202;2023-04-07T05:41:22;8.20;;;7.27;;
17207;SDS011;8720;48.488;9.202;2023-04-07T05:43:50;8.27;;;6.97;;
17207;SDS011;8720;48.488;9.202;2023-04-07T05:46:17;9.83;;;7.53;;
17207;SDS011;8720;48.488;9.202;2023-04-07T05:48:50;9.60;;;7.20;;
17207;SDS011;8720;48.488;9.202;2023-04-07T05:51:19;8.43;;;7.17;;
17207;SDS011;8720;48.488;9.202;2023-04-07T05:53:47;7.57;;;6.73;;
17207;SDS011;8720;48.488;9.202;2023-04-07T05:56:17;10.67;;;7.63;;
17207;SDS011;8720;48.488;9.202;2023-04-07T05:58:46;12.87;;;7.40;;
17207;SDS011;8720;48.488;9.202;2023-04-07T06:01:14;8.40;;;7.03;;
17207;SDS011;8720;48.488;9.202;2023-04-07T06:03:42;10.50;;;7.80;;
17207;SDS011;8720;48.488;9.202;2023-04-07T06:06:17;9.50;;;7.37;;
17207;SDS011;8720;48.488;9.202;2023-04-07T06:08:45;10.57;;;7.80;;
17207;SDS011;8720;48.488;9.202;2023-04-07T06:11:12;11.00;;;8.93;;
17207;SDS011;8720;48.488;9.202;2023-04-07T06:13:41;11.87;;;9.83;;
17207;SDS011;8720;48.488;9.202;2023-04-07T06:16:08;12.07;;;9.40;;
17207;SDS011;8720;48.488;9.202;2023-04-07T06:18:36;12.00;;;9.80;;
17207;SDS011;8720;48.488;9.202;2023-04-07T06:21:05;11.10;;;8.70;;
17207;SDS011;8720;48.488;9.202;2023-04-07T06:23:32;11.10;;;8.80;;
17207;SDS011;8720;48.488;9.202;2023-04-07T06:26:00;10.60;;;8.40;;
17207;SDS011;8720;48.488;9.202;2023-04-07T06:28:28;13.40;;;8.53;;
17207;SDS011;8720;48.488;9.202;2023-04-07T06:30:58;9.27;;;8.10;;
17207;SDS011;8720;48.488;9.202;2023-04-07T06:33:26;9.00;;;7.87;;
17207;SDS011;8720;48.488;9.202;2023-04-07T06:35:55;7.97;;;7.17;;
17207;SDS011;8720;48.488;9.202;2023-04-07T06:38:22;9.27;;;8.30;;
17207;SDS011;8720;48.488;9.202;2023-04-07T06:40:50;10.17;;;7.67;;
17207;SDS011;8720;48.488;9.202;2023-04-07T06:43:17;8.77;;;7.47;;
17207;SDS011;8720;48.488;9.202;2023-04-07T06:46:00;8.80;;;7.90;;
17207;SDS011;8720;48.488;9.202;2023-04-07T06:48:28;9.50;;;7.80;;
17207;SDS011;8720;48.488;9.202;2023-04-07T06:50:55;10.60;;;9.40;;
17207;SDS011;8720;48.488;9.202;2023-04-07T06:53:22;12.97;;;10.83;;
17207;SDS011;8720;48.488;9.202;2023-04-07T06:55:49;15.63;;;9.90;;
17207;SDS011;8720;48.488;9.202;2023-04-07T06:58:17;10.23;;;8.77;;
17207;SDS011;8720;48.488;9.202;2023-04-07T07:00:44;10.57;;;8.13;;
17207;SDS011;8720;48.488;9.202;2023-04-07T07:03:13;10.40;;;8.53;;
17207;SDS011;8720;48.488;9.202;2023-04-07T07:05:40;11.00;;;9.17;;
17207;SDS011;8720;48.488;9.202;2023-04-07T07:08:07;9.60;;;8.50;;
17207;SDS011;8720;48.488;9.202;2023-04-07T07:10:35;11.10;;;8.03;;
17207;SDS011;8720;48.488;9.202;2023-04-07T07:13:02;9.23;;;8.27;;
17207;SDS011;8720;48.488;9.202;2023-04-07T07:15:29;10.40;;;9.03;;
17207;SDS011;8720;48.488;9.202;2023-04-07T07:17:56;9.73;;;8.30;;
17207;SDS011;8720;48.488;9.202;2023-04-07T07:20:25;9.83;;;8.83;;
17207;SDS011;8720;48.488;9.202;2023-04-07T07:22:52;8.93;;;8.00;;
17207;SDS011;8720;48.488;9.202;2023-04-07T07:25:20;11.20;;;8.57;;
17207;SDS011;8720;48.488;9.202;2023-04-07T07:27:48;9.90;;;8.30;;
17207;SDS011;8720;48.488;9.202;2023-04-07T07:30:17;11.80;;;7.90;;
17207;SDS011;8720;48.488;9.202;2023-04-07T07:32:45;9.07;;;7.90;;
17207;SDS011;8720;48.488;9.202;2023-04-07T07:35:13;10.60;;;8.07;;
17207;SDS011;8720;48.488;9.202;2023-04-07T07:37:42;10.77;;;8.80;;
17207;SDS011;8720;48.488;9.202;2023-04-07T07:40:09;10.00;;;8.20;;
17207;SDS011;8720;48.488;9.202;2023-04-07T07:42:37;10.37;;;8.57;;
17207;SDS011;8720;48.488;9.202;2023-04-07T07:45:04;8.43;;;7.50;;
17207;SDS011;8720;48.488;9.202;2023-04-07T07:47:32;10.50;;;8.07;;
17207;SDS011;8720;48.488;9.202;2023-04-07T07:50:02;9.10;;;8.20;;
17207;SDS011;8720;48.488;9.202;2023-04-07T07:52:30;8.83;;;7.93;;
17207;SDS011;8720;48.488;9.202;2023-04-07T07:54:58;10.07;;;8.30;;
17207;SDS011;8720;48.488;9.202;2023-04-07T07:57:26;10.67;;;8.40;;
17207;SDS011;8720;48.488;9.202;2023-04-07T07:59:55;11.27;;;8.77;;
17207;SDS011;8720;48.488;9.202;2023-04-07T08:02:22;12.47;;;8.97;;
17207;SDS011;8720;48.488;9.202;2023-04-07T08:04:54;11.23;;;8.10;;
17207;SDS011;8720;48.488;9.202;2023-04-07T08:07:22;7.20;;;6.20;;
17207;SDS011;8720;48.488;9.202;2023-04-07T08:09:49;7.60;;;5.63;;
17207;SDS011;8720;48.488;9.202;2023-04-07T08:12:18;7.87;;;4.93;;
17207;SDS011;8720;48.488;9.202;2023-04-07T08:14:45;7.10;;;5.53;;
17207;SDS011;8720;48.488;9.202;2023-04-07T08:17:14;6.10;;;4.90;;
17207;SDS011;8720;48.488;9.202;2023-04-07T08:19:41;5.80;;;5.30;;
17207;SDS011;8720;48.488;9.202;2023-04-07T08:22:09;5.73;;;5.13;;
17207;SDS011;8720;48.488;9.202;2023-04-07T08:24:36;5.40;;;4.90;;
17207;SDS011;8720;48.488;9.202;2023-04-07T08:27:03;6.70;;;4.97;;
17207;SDS011;8720;48.488;9.202;2023-04-07T08:29:32;5.27;;;4.77;;
17207;SDS011;8720;48.488;9.202;2023-04-07T08:31:59;6.23;;;5.37;;
17207;SDS011;8720;48.488;9.202;2023-04-07T08:34:26;6.50;;;5.33;;
17207;SDS011;8720;48.488;9.202;2023-04-07T08:36:54;5.60;;;5.00;;
17207;SDS011;8720;48.488;9.202;2023-04-07T08:39:21;5.10;;;4.60;;
17207;SDS011;8720;48.488;9.202;2023-04-07T08:41:49;5.57;;;5.03;;
17207;SDS011;8720;48.488;9.202;2023-04-07T08:44:17;5.90;;;5.10;;
17207;SDS011;8720;48.488;9.202;2023-04-07T08:46:50;5.47;;;4.80;;
17207;SDS011;8720;48.488;9.202;2023-04-07T08:49:22;5.60;;;4.17;;
17207;SDS011;8720;48.488;9.202;2023-04-07T08:51:53;4.87;;;4.20;;
17207;SDS011;8720;48.488;9.202;2023-04-07T08:54:25;4.80;;;4.27;;
17207;SDS011;8720;48.488;9.202;2023-04-07T08:56:53;4.77;;;4.07;;
17207;SDS011;8720;48.488;9.202;2023-04-07T08:59:21;5.53;;;4.60;;
17207;SDS011;8720;48.488;9.202;2023-04-07T09:01:54;5.77;;;5.27;;
17207;SDS011;8720;48.488;9.202;2023-04-07T09:04:21;5.87;;;4.67;;
17207;SDS011;8720;48.488;9.202;2023-04-07T09:06:51;4.13;;;3.73;;
17207;SDS011;8720;48.488;9.202;2023-04-07T09:09:18;4.90;;;4.00;;
17207;SDS011;8720;48.488;9.202;2023-04-07T09:11:46;3.77;;;3.37;;
17207;SDS011;8720;48.488;9.202;2023-04-07T09:14:14;4.40;;;4.00;;
17207;SDS011;8720;48.488;9.202;2023-04-07T09:16:42;5.30;;;4.17;;
17207;SDS011;8720;48.488;9.202;2023-04-07T09:19:11;4.60;;;3.50;;
17207;SDS011;8720;48.488;9.202;2023-04-07T09:21:46;6.40;;;4.50;;
17207;SDS011;8720;48.488;9.202;2023-04-07T09:24:22;5.57;;;4.27;;
17207;SDS011;8720;48.488;9.202;2023-04-07T09:26:58;4.63;;;4.23;;
17207;SDS011;8720;48.488;9.202;2023-04-07T09:29:36;5.27;;;3.57;;
17207;SDS011;8720;48.488;9.202;2023-04-07T09:32:07;4.70;;;3.47;;
17207;SDS011;8720;48.488;9.202;2023-04-07T09:34:37;5.40;;;3.40;;
17207;SDS011;8720;48.488;9.202;2023-04-07T09:37:06;3.20;;;2.90;;
17207;SDS011;8720;48.488;9.202;2023-04-07T09:39:47;4.07;;;3.67;;
17207;SDS011;8720;48.488;9.202;2023-04-07T09:42:19;3.97;;;3.57;;
17207;SDS011;8720;48.488;9.202;2023-04-07T09:44:46;4.23;;;3.83;;
17207;SDS011;8720;48.488;9.202;2023-04-07T09:47:14;5.03;;;3.87;;
17207;SDS011;8720;48.488;9.202;2023-04-07T09:49:49;4.90;;;3.83;;
17207;SDS011;8720;48.488;9.202;2023-04-07T09:52:21;5.10;;;3.60;;
17207;SDS011;8720;48.488;9.202;2023-04-07T09:55:12;3.97;;;3.57;;
17207;SDS011;8720;48.488;9.202;2023-04-07T09:57:40;5.00;;;4.10;;
17207;SDS011;8720;48.488;9.202;2023-04-07T10:00:10;4.67;;;3.97;;
17207;SDS011;8720;48.488;9.202;2023-04-07T10:02:38;6.07;;;3.93;;
17207;SDS011;8720;48.488;9.202;2023-04-07T10:05:08;3.90;;;3.50;;
17207;SDS011;8720;48.488;9.202;2023-04-07T10:07:36;4.40;;;3.70;;
17207;SDS011;8720;48.488;9.202;2023-04-07T10:10:05;3.87;;;2.90;;
17207;SDS011;8720;48.488;9.202;2023-04-07T10:12:33;5.63;;;3.43;;
17207;SDS011;8720;48.488;9.202;2023-04-07T10:15:03;3.97;;;2.87;;
17207;SDS011;8720;48.488;9.202;2023-04-07T10:17:32;3.60;;;2.90;;
17207;SDS011;8720;48.488;9.202;2023-04-07T10:20:01;3.43;;;2.63;;
17207;SDS011;8720;48.488;9.202;2023-04-07T10:22:35;4.00;;;2.93;;
17207;SDS011;8720;48.488;9.202;2023-04-07T10:25:06;3.20;;;2.90;;
17207;SDS011;8720;48.488;9.202;2023-04-07T10:27:37;4.07;;;3.20;;
17207;SDS011;8720;48.488;9.202;2023-04-07T10:30:16;3.77;;;2.83;;
17207;SDS011;8720;48.488;9.202;2023-04-07T10:32:49;4.40;;;3.10;;
17207;SDS011;8720;48.488;9.202;2023-04-07T10:35:18;4.77;;;3.20;;
17207;SDS011;8720;48.488;9.202;2023-04-07T10:40:39;3.10;;;2.10;;
17207;SDS011;8720;48.488;9.202;2023-04-07T10:43:08;4.17;;;2.10;;
17207;SDS011;8720;48.488;9.202;2023-04-07T10:45:52;3.80;;;2.50;;
17207;SDS011;8720;48.488;9.202;2023-04-07T10:48:24;3.00;;;2.33;;
17207;SDS011;8720;48.488;9.202;2023-04-07T10:51:14;3.07;;;2.43;;
17207;SDS011;8720;48.488;9.202;2023-04-07T11:02:41;4.90;;;2.60;;
17207;SDS011;8720;48.488;9.202;2023-04-07T11:05:18;3.57;;;2.57;;
17207;SDS011;8720;48.488;9.202;2023-04-07T11:07:48;2.80;;;2.50;;
17207;SDS011;8720;48.488;9.202;2023-04-07T11:10:20;3.47;;;2.30;;
17207;SDS011;8720;48.488;9.202;2023-04-07T11:13:01;4.33;;;2.40;;
17207;SDS011;8720;48.488;9.202;2023-04-07T11:15:32;3.13;;;2.70;;
17207;SDS011;8720;48.488;9.202;2023-04-07T11:18:11;3.07;;;2.40;;
17207;SDS011;8720;48.488;9.202;2023-04-07T11:20:44;3.40;;;2.43;;
17207;SDS011;8720;48.488;9.202;2023-04-07T11:23:14;2.93;;;2.40;;
17207;SDS011;8720;48.488;9.202;2023-04-07T11:25:45;3.57;;;2.60;;
17207;SDS011;8720;48.488;9.202;2023-04-07T11:28:14;4.03;;;2.37;;
17207;SDS011;8720;48.488;9.202;2023-04-07T11:30:45;4.90;;;2.33;;
17207;SDS011;8720;48.488;9.202;2023-04-07T11:33:17;3.23;;;2.60;;
17207;SDS011;8720;48.488;9.202;2023-04-07T11:35:50;3.00;;;2.37;;
17207;SDS011;8720;48.488;9.202;2023-04-07T11:38:21;3.43;;;2.00;;
17207;SDS011;8720;48.488;9.202;2023-04-07T11:40:53;4.23;;;2.80;;
17207;SDS011;8720;48.488;9.202;2023-04-07T11:43:22;2.73;;;2.47;;
17207;SDS011;8720;48.488;9.202;2023-04-07T11:46:04;2.80;;;1.87;;
17207;SDS011;8720;48.488;9.202;2023-04-07T11:48:34;3.57;;;2.37;;
17207;SDS011;8720;48.488;9.202;2023-04-07T11:51:03;3.30;;;2.50;;
17207;SDS011;8720;48.488;9.202;2023-04-07T11:53:32;2.80;;;2.60;;
17207;SDS011;8720;48.488;9.202;2023-04-07T11:56:04;3.83;;;2.30;;
17207;SDS011;8720;48.488;9.202;2023-04-07T11:58:34;3.20;;;2.40;;
17207;SDS011;8720;48.488;9.202;2023-04-07T12:01:03;3.00;;;2.37;;
17207;SDS011;8720;48.488;9.202;2023-04-07T12:03:33;2.40;;;2.10;;
17207;SDS011;8720;48.488;9.202;2023-04-07T12:06:02;2.30;;;2.00;;
17207;SDS011;8720;48.488;9.202;2023-04-07T12:08:40;2.17;;;1.80;;
17207;SDS011;8720;48.488;9.202;2023-04-07T12:11:11;2.00;;;1.77;;
17207;SDS011;8720;48.488;9.202;2023-04-07T12:13:38;1.97;;;1.33;;
17207;SDS011;8720;48.488;9.202;2023-04-07T12:16:06;2.20;;;1.60;;
17207;SDS011;8720;48.488;9.202;2023-04-07T12:18:34;2.70;;;1.53;;
17207;SDS011;8720;48.488;9.202;2023-04-07T12:21:02;1.80;;;1.50;;
17207;SDS011;8720;48.488;9.202;2023-04-07T12:23:30;2.37;;;1.50;;
17207;SDS011;8720;48.488;9.202;2023-04-07T12:25:57;4.30;;;1.90;;
17207;SDS011;8720;48.488;9.202;2023-04-07T12:28:26;2.90;;;1.83;;
17207;SDS011;8720;48.488;9.202;2023-04-07T12:30:54;1.80;;;1.50;;
17207;SDS011;8720;48.488;9.202;2023-04-07T12:33:21;2.47;;;1.50;;
17207;SDS011;8720;48.488;9.202;2023-04-07T12:35:49;2.73;;;1.40;;
17207;SDS011;8720;48.488;9.202;2023-04-07T12:38:16;2.73;;;1.53;;
17207;SDS011;8720;48.488;9.202;2023-04-07T12:40:43;2.97;;;1.57;;
17207;SDS011;8720;48.488;9.202;2023-04-07T12:43:11;3.50;;;1.50;;
17207;SDS011;8720;48.488;9.202;2023-04-07T12:45:40;2.17;;;1.47;;
17207;SDS011;8720;48.488;9.202;2023-04-07T12:48:07;2.20;;;1.60;;
17207;SDS011;8720;48.488;9.202;2023-04-07T12:50:35;2.10;;;1.33;;
17207;SDS011;8720;48.488;9.202;2023-04-07T12:53:02;3.83;;;1.33;;
17207;SDS011;8720;48.488;9.202;2023-04-07T12:55:30;2.10;;;1.20;;
17207;SDS011;8720;48.488;9.202;2023-04-07T12:57:59;1.80;;;1.70;;
17207;SDS011;8720;48.488;9.202;2023-04-07T13:00:27;3.40;;;1.80;;
17207;SDS011;8720;48.488;9.202;2023-04-07T13:02:56;1.90;;;1.30;;
17207;SDS011;8720;48.488;9.202;2023-04-07T13:05:23;2.40;;;1.50;;
17207;SDS011;8720;48.488;9.202;2023-04-07T13:07:51;1.87;;;1.43;;
17207;SDS011;8720;48.488;9.202;2023-04-07T13:10:18;1.70;;;1.10;;
17207;SDS011;8720;48.488;9.202;2023-04-07T13:12:46;1.50;;;1.20;;
17207;SDS011;8720;48.488;9.202;2023-04-07T13:15:14;1.93;;;1.17;;
17207;SDS011;8720;48.488;9.202;2023-04-07T13:17:42;1.50;;;1.20;;
17207;SDS011;8720;48.488;9.202;2023-04-07T13:20:11;1.97;;;1.33;;
17207;SDS011;8720;48.488;9.202;2023-04-07T13:22:39;3.63;;;1.80;;
17207;SDS011;8720;48.488;9.202;2023-04-07T13:25:06;1.43;;;1.17;;
17207;SDS011;8720;48.488;9.202;2023-04-07T13:27:34;1.60;;;1.13;;
17207;SDS011;8720;48.488;9.202;2023-04-07T13:30:01;1.23;;;0.90;;
17207;SDS011;8720;48.488;9.202;2023-04-07T13:32:29;2.00;;;1.20;;
17207;SDS011;8720;48.488;9.202;2023-04-07T13:34:56;1.60;;;1.27;;
17207;SDS011;8720;48.488;9.202;2023-04-07T13:37:25;1.20;;;0.90;;
17207;SDS011;8720;48.488;9.202;2023-04-07T13:39:53;1.70;;;1.20;;
17207;SDS011;8720;48.488;9.202;2023-04-07T13:42:20;2.23;;;1.10;;
17207;SDS011;8720;48.488;9.202;2023-04-07T13:44:47;2.20;;;1.20;;
17207;SDS011;8720;48.488;9.202;2023-04-07T13:47:15;2.07;;;1.50;;
17207;SDS011;8720;48.488;9.202;2023-04-07T13:49:45;1.87;;;1.27;;
17207;SDS011;8720;48.488;9.202;2023-04-07T13:52:13;2.20;;;1.67;;
17207;SDS011;8720;48.488;9.202;2023-04-07T13:54:42;1.77;;;1.40;;
17207;SDS011;8720;48.488;9.202;2023-04-07T13:57:10;2.60;;;1.50;;
17207;SDS011;8720;48.488;9.202;2023-04-07T13:59:43;2.20;;;2.00;;
17207;SDS011;8720;48.488;9.202;2023-04-07T14:02:12;2.17;;;1.97;;
17207;SDS011;8720;48.488;9.202;2023-04-07T14:04:39;2.73;;;2.10;;
17207;SDS011;8720;48.488;9.202;2023-04-07T14:07:07;2.80;;;1.80;;
17207;SDS011;8720;48.488;9.202;2023-04-07T14:09:34;3.13;;;1.83;;
17207;SDS011;8720;48.488;9.202;2023-04-07T14:12:07;2.83;;;2.10;;
17207;SDS011;8720;48.488;9.202;2023-04-07T14:14:34;1.63;;;1.53;;
17207;SDS011;8720;48.488;9.202;2023-04-07T14:17:02;2.30;;;1.90;;
17207;SDS011;8720;48.488;9.202;2023-04-07T14:19:30;2.47;;;1.70;;
17207;SDS011;8720;48.488;9.202;2023-04-07T14:22:06;2.33;;;1.37;;
17207;SDS011;8720;48.488;9.202;2023-04-07T14:24:33;2.03;;;1.60;;
17207;SDS011;8720;48.488;9.202;2023-04-07T14:27:00;2.00;;;1.40;;
17207;SDS011;8720;48.488;9.202;2023-04-07T14:29:29;2.00;;;1.50;;
17207;SDS011;8720;48.488;9.202;2023-04-07T14:31:57;2.30;;;1.50;;
17207;SDS011;8720;48.488;9.202;2023-04-07T14:34:24;2.20;;;1.70;;
17207;SDS011;8720;48.488;9.202;2023-04-07T14:36:52;2.40;;;1.90;;
17207;SDS011;8720;48.488;9.202;2023-04-07T14:39:20;3.97;;;1.60;;
17207;SDS011;8720;48.488;9.202;2023-04-07T14:41:48;2.67;;;1.60;;
17207;SDS011;8720;48.488;9.202;2023-04-07T14:44:15;2.20;;;1.23;;
17207;SDS011;8720;48.488;9.202;2023-04-07T14:46:44;2.97;;;1.70;;
17207;SDS011;8720;48.488;9.202;2023-04-07T14:49:12;1.77;;;1.20;;
17207;SDS011;8720;48.488;9.202;2023-04-07T14:51:40;3.03;;;1.53;;
17207;SDS011;8720;48.488;9.202;2023-04-07T14:54:07;2.30;;;1.30;;
17207;SDS011;8720;48.488;9.202;2023-04-07T14:56:34;3.73;;;1.30;;
17207;SDS011;8720;48.488;9.202;2023-04-07T14:59:02;2.60;;;1.40;;
17207;SDS011;8720;48.488;9.202;2023-04-07T15:01:29;2.17;;;1.40;;
17207;SDS011;8720;48.488;9.202;2023-04-07T15:03:58;2.13;;;1.20;;
17207;SDS011;8720;48.488;9.202;2023-04-07T15:06:26;1.67;;;1.33;;
17207;SDS011;8720;48.488;9.202;2023-04-07T15:08:53;1.60;;;1.10;;
17207;SDS011;8720;48.488;9.202;2023-04-07T15:11:20;1.70;;;1.10;;
17207;SDS011;8720;48.488;9.202;2023-04-07T15:13:48;2.20;;;1.20;;
17207;SDS011;8720;48.488;9.202;2023-04-07T15:16:15;1.67;;;1.10;;
17207;SDS011;8720;48.488;9.202;2023-04-07T15:18:43;1.80;;;1.40;;
17207;SDS011;8720;48.488;9.202;2023-04-07T15:21:13;1.93;;;1.30;;
17207;SDS011;8720;48.488;9.202;2023-04-07T15:23:40;3.70;;;1.90;;
17207;SDS011;8720;48.488;9.202;2023-04-07T15:26:08;1.80;;;1.47;;
17207;SDS011;8720;48.488;9.202;2023-04-07T15:28:36;2.63;;;1.80;;
17207;SDS011;8720;48.488;9.202;2023-04-07T15:31:04;2.40;;;1.50;;
17207;SDS011;8720;48.488;9.202;2023-04-07T15:33:33;2.63;;;1.70;;